Terminal Aerodrome Forecast
Issued by NWS

Home | Current Version | Previous Version | Text Only | Print | Product List | Glossary On
Versions: 1 2 3 4 5 6 7 8 9 10 11 12 13
000
FTUS45 KRIW 301130
TAFWRL
TAF
KWRL 301130Z 3012/3112 VRB06KT P6SM VCSH BKN100
     FM301500 VRB05KT P6SM SCT100
     FM302000 35014G22KT P6SM VCTS SCT060CB BKN090
     FM310000 35013KT P6SM VCSH BKN070
     FM310200 33010KT P6SM BKN070
     FM310700 VRB05KT P6SM BKN060=

USA.gov is the U.S. government's official web portal to all federal, state and local government web resources and services.